Time;durP1;ratioP1;P1;durP2;ratioP2;P2;SDS_P1;SDS_P2;PMS_P1;PMS_P2;Temp;Humidity;BMP_temperature;BMP_pressure;BME280_temperature;BME280_humidity;BME280_pressure;Samples;Min_cycle;Max_cycle;Signal;HPM_P1;HPM_P2
2022/12/22 03:26:03;;;;;;;48.08;23.00;;;;;;;1.19;nan;100711.81;5022833;28;20045;-71
2022/12/22 03:28:28;;;;;;;53.00;24.25;;;;;;;1.03;nan;100696.16;5025125;28;20030;-70
2022/12/22 03:30:54;;;;;;;57.55;24.67;;;;;;;1.20;nan;100726.41;5023632;28;20616;-71
2022/12/22 03:33:21;;;;;;;50.65;24.00;;;;;;;1.22;nan;100716.72;5024500;28;20037;-71
2022/12/22 03:35:46;;;;;;;54.78;23.92;;;;;;;1.24;nan;100713.94;5028017;28;20017;-71
2022/12/22 03:38:11;;;;;;;54.75;23.88;;;;;;;1.26;nan;100701.63;5019050;28;20452;-71
2022/12/22 03:40:37;;;;;;;53.72;23.83;;;;;;;1.26;nan;100704.22;5025046;28;20041;-71
2022/12/22 03:46:46;;;;;;;52.25;24.35;;;;;;;1.28;nan;100720.44;5025688;28;20403;-71
2022/12/22 03:48:42;;;;;;;50.50;23.75;;;;;;;1.16;nan;100708.72;5009996;28;20572;-72
2022/12/22 03:51:08;;;;;;;52.67;25.48;;;;;;;1.32;nan;100715.75;5026492;28;20025;-72
2022/12/22 03:53:33;;;;;;;52.30;24.48;;;;;;;1.33;nan;100713.00;5021435;28;20364;-71
2022/12/22 03:55:58;;;;;;;52.70;24.50;;;;;;;1.38;nan;100715.94;5019581;28;20470;-72
2022/12/22 03:58:24;;;;;;;53.53;24.17;;;;;;;1.38;nan;100710.75;5021189;28;20042;-71
2022/12/22 04:00:49;;;;;;;51.38;24.25;;;;;;;1.34;nan;100693.88;5027750;28;20035;-70
2022/12/22 04:03:14;;;;;;;51.15;24.10;;;;;;;1.44;nan;100714.50;5022666;28;20495;-71
2022/12/22 04:05:40;;;;;;;48.92;23.17;;;;;;;1.30;nan;100697.75;5029220;28;20088;-72
2022/12/22 04:08:06;;;;;;;52.88;24.80;;;;;;;1.36;nan;100710.09;5017676;28;20476;-71
2022/12/22 04:13:15;;;;;;;50.97;23.77;;;;;;;1.39;nan;100719.34;5026102;28;20479;-71
2022/12/22 04:15:41;;;;;;;55.40;24.73;;;;;;;1.37;nan;100700.53;5028896;28;20108;-72
2022/12/22 04:18:06;;;;;;;50.55;24.35;;;;;;;1.44;nan;100710.13;5028902;28;20117;-71
2022/12/22 04:20:32;;;;;;;54.83;25.13;;;;;;;1.49;nan;100710.47;5022676;28;20041;-71
2022/12/22 04:22:58;;;;;;;59.25;26.38;;;;;;;1.20;nan;100666.75;5023776;28;20049;-72
2022/12/22 04:25:25;;;;;;;52.03;24.40;;;;;;;1.52;nan;100721.50;5022369;28;20112;-72
2022/12/22 04:27:50;;;;;;;52.53;26.30;;;;;;;1.51;nan;100712.91;5027804;28;20384;-67
2022/12/22 04:30:16;;;;;;;56.80;25.00;;;;;;;1.54;nan;100704.81;5026815;28;20028;-67
2022/12/22 04:32:41;;;;;;;65.45;28.33;;;;;;;1.58;nan;100711.31;5025700;28;20419;-66
2022/12/22 04:35:08;;;;;;;67.15;28.70;;;;;;;1.60;nan;100716.31;5010690;28;20033;-68
2022/12/22 04:37:34;;;;;;;66.10;28.13;;;;;;;1.40;nan;100677.69;5022230;28;20136;-69
2022/12/22 04:39:59;;;;;;;65.80;28.17;;;;;;;1.59;nan;100697.34;5026065;28;20502;-68
2022/12/22 04:42:24;;;;;;;67.53;28.25;;;;;;;1.68;nan;100706.78;5023004;28;20021;-70
2022/12/22 04:44:50;;;;;;;56.72;26.25;;;;;;;1.72;nan;100709.06;5019760;28;20033;-66
2022/12/22 04:47:16;;;;;;;54.40;24.42;;;;;;;1.63;nan;100687.47;5020328;28;20021;-69
2022/12/22 04:49:41;;;;;;;57.20;25.20;;;;;;;1.51;nan;100657.59;5023948;28;20491;-66
2022/12/22 04:52:09;;;;;;;50.42;23.73;;;;;;;1.77;nan;100693.81;5021737;28;20045;-69
2022/12/22 04:54:35;;;;;;;52.30;24.13;;;;;;;1.73;nan;100701.13;5019454;28;20021;-67
2022/12/22 04:57:00;;;;;;;50.95;24.10;;;;;;;1.66;nan;100693.16;5016968;28;20052;-67
2022/12/22 04:59:26;;;;;;;53.08;25.83;;;;;;;1.71;nan;100687.47;5024266;28;20169;-66
2022/12/22 05:01:51;;;;;;;53.45;25.50;;;;;;;1.70;nan;100688.47;5027319;28;20020;-69
2022/12/22 05:04:17;;;;;;;59.33;26.92;;;;;;;1.74;nan;100699.34;5024651;28;20026;-68
2022/12/22 05:06:42;;;;;;;55.80;26.27;;;;;;;1.69;nan;100682.44;5022895;28;20040;-70
2022/12/22 05:09:09;;;;;;;54.97;25.90;;;;;;;1.66;nan;100679.38;5022763;28;20033;-67
2022/12/22 05:11:35;;;;;;;54.22;26.33;;;;;;;1.75;nan;100688.78;5025854;28;20394;-67
2022/12/22 05:14:00;;;;;;;58.22;25.98;;;;;;;1.70;nan;100681.50;5023883;28;20025;-67
2022/12/22 05:16:25;;;;;;;52.22;25.42;;;;;;;1.69;nan;100685.03;5019735;28;20030;-67
2022/12/22 05:18:51;;;;;;;59.80;26.20;;;;;;;1.69;nan;100681.63;5018394;28;20120;-67
2022/12/22 05:21:20;;;;;;;54.42;25.13;;;;;;;1.69;nan;100684.22;5022552;28;20373;-69
2022/12/22 05:23:46;;;;;;;60.30;25.83;;;;;;;1.62;nan;100670.25;5007157;28;20476;-69
2022/12/22 05:26:13;;;;;;;55.53;26.45;;;;;;;1.69;nan;100684.22;5017510;28;20028;-70
2022/12/22 05:28:40;;;;;;;56.03;26.25;;;;;;;1.68;nan;100682.63;5016993;28;20068;-66
2022/12/22 05:31:09;;;;;;;60.13;26.13;;;;;;;1.70;nan;100698.84;5022924;28;20095;-68
2022/12/22 05:33:35;;;;;;;52.85;25.83;;;;;;;1.62;nan;100696.22;5036288;28;20511;-69
2022/12/22 05:36:01;;;;;;;50.00;24.05;;;;;;;1.63;nan;100708.25;5024489;28;20030;-69
2022/12/22 05:38:26;;;;;;;51.80;25.33;;;;;;;1.63;nan;100708.25;5021848;28;20505;-69
2022/12/22 05:40:52;;;;;;;54.38;25.55;;;;;;;1.58;nan;100694.91;5020332;28;20136;-70
2022/12/22 05:43:17;;;;;;;54.13;25.80;;;;;;;1.66;nan;100711.31;5024871;28;20033;-69
2022/12/22 05:45:44;;;;;;;60.00;26.77;;;;;;;1.63;nan;100703.88;5021290;28;20112;-69
2022/12/22 05:48:10;;;;;;;60.42;27.10;;;;;;;1.66;nan;100713.91;5023263;28;20029;-70
2022/12/22 05:50:36;;;;;;;60.78;26.13;;;;;;;1.67;nan;100712.94;5021337;28;20030;-69
2022/12/22 05:53:01;;;;;;;51.33;25.25;;;;;;;1.63;nan;100703.06;5017861;28;20021;-69
2022/12/22 05:55:27;;;;;;;54.15;25.17;;;;;;;1.66;nan;100707.91;5021084;28;20573;-69
2022/12/22 05:57:52;;;;;;;52.42;25.20;;;;;;;1.67;nan;100701.75;5030282;28;20140;-67
2022/12/22 06:00:18;;;;;;;56.08;25.80;;;;;;;1.71;nan;100705.66;5028855;28;20410;-69
2022/12/22 06:02:44;;;;;;;52.47;25.20;;;;;;;1.73;nan;100706.31;5029434;28;20079;-70
2022/12/22 06:05:11;;;;;;;56.38;25.52;;;;;;;1.79;nan;100713.44;5023873;28;20483;-70
2022/12/22 06:07:36;;;;;;;54.22;25.30;;;;;;;1.83;nan;100722.56;5022568;28;20095;-69
2022/12/22 06:10:03;;;;;;;56.20;25.95;;;;;;;1.80;nan;100709.09;5023289;28;20022;-70
2022/12/22 06:12:29;;;;;;;54.03;25.15;;;;;;;1.78;nan;100711.84;5027041;28;20135;-69
2022/12/22 06:14:54;;;;;;;60.17;27.65;;;;;;;1.83;nan;100722.56;5025099;28;20124;-68
2022/12/22 06:17:19;;;;;;;70.93;30.60;;;;;;;1.77;nan;100705.00;5022618;28;20032;-70
2022/12/22 06:19:45;;;;;;;68.53;31.63;;;;;;;1.93;nan;100722.41;5027338;28;20021;-69
2022/12/22 06:22:10;;;;;;;65.43;30.23;;;;;;;1.96;nan;100710.88;5025726;28;20036;-69
2022/12/22 06:24:35;;;;;;;71.53;30.52;;;;;;;1.92;nan;100700.00;5022116;28;20031;-70
2022/12/22 06:27:01;;;;;;;66.88;29.98;;;;;;;1.92;nan;100708.63;5025845;28;20604;-70
2022/12/22 06:29:26;;;;;;;65.13;30.15;;;;;;;2.06;nan;100720.16;5025701;28;20174;-70
2022/12/22 06:31:52;;;;;;;65.95;28.67;;;;;;;2.09;nan;100727.63;5023892;28;20095;-71
2022/12/22 06:34:17;;;;;;;62.72;27.77;;;;;;;2.11;nan;100728.28;5019226;28;20065;-72
2022/12/22 06:36:46;;;;;;;64.45;28.48;;;;;;;2.15;nan;100735.75;5024887;28;20463;-70
2022/12/22 06:39:16;;;;;;;65.13;29.02;;;;;;;2.13;nan;100731.53;5028615;28;20025;-72
2022/12/22 06:44:26;;;;;;;64.47;27.40;;;;;;;2.09;nan;100721.63;5030914;28;19939;-72
2022/12/22 06:46:51;;;;;;;66.93;28.63;;;;;;;2.12;nan;100727.28;5025498;28;20037;-72
2022/12/22 06:49:17;;;;;;;67.55;28.80;;;;;;;2.12;nan;100724.69;5030174;28;20493;-71
2022/12/22 06:51:42;;;;;;;66.47;29.25;;;;;;;2.13;nan;100730.69;5025617;28;20034;-72
2022/12/22 06:54:08;;;;;;;66.93;30.25;;;;;;;2.26;nan;100738.84;5022703;28;20060;-72
2022/12/22 06:56:33;;;;;;;67.13;29.75;;;;;;;2.15;nan;100723.56;5023221;28;20046;-72
2022/12/22 06:58:58;;;;;;;65.85;30.13;;;;;;;2.17;nan;100718.22;5028142;28;20479;-72
2022/12/22 07:01:24;;;;;;;70.72;31.33;;;;;;;2.23;nan;100725.38;5026270;28;20025;-73
2022/12/22 07:03:49;;;;;;;72.55;31.08;;;;;;;2.36;nan;100748.25;5029067;28;20036;-72
2022/12/22 07:06:17;;;;;;;72.25;31.75;;;;;;;2.21;nan;100720.31;5026938;28;20140;-72
2022/12/22 07:08:43;;;;;;;72.25;32.38;;;;;;;2.41;nan;100746.78;5020058;28;20038;-72
2022/12/22 07:11:09;;;;;;;78.90;33.53;;;;;;;2.31;nan;100741.75;5027148;28;20021;-72
2022/12/22 07:13:34;;;;;;;87.35;38.53;;;;;;;2.35;nan;100734.47;5020220;28;20026;-72
2022/12/22 07:16:01;;;;;;;88.57;37.92;;;;;;;2.32;nan;100734.75;5027336;28;20076;-72
2022/12/22 07:18:31;;;;;;;82.63;36.03;;;;;;;2.38;nan;100749.72;5025890;28;20032;-71
2022/12/22 07:20:57;;;;;;;86.28;38.60;;;;;;;2.36;nan;100730.06;5021601;28;20049;-72
2022/12/22 07:23:22;;;;;;;87.72;39.13;;;;;;;2.42;nan;100734.59;5024050;28;20053;-72
2022/12/22 07:25:47;;;;;;;83.72;36.58;;;;;;;2.33;nan;100718.22;5024013;28;20476;-74
2022/12/22 07:28:13;;;;;;;77.50;33.78;;;;;;;2.38;nan;100723.72;5024691;28;20030;-74
2022/12/22 07:30:38;;;;;;;74.50;33.42;;;;;;;2.47;nan;100740.16;5028793;28;20025;-74
2022/12/22 07:33:04;;;;;;;81.13;35.92;;;;;;;2.49;nan;100732.97;5019069;28;20037;-74
2022/12/22 07:35:29;;;;;;;80.05;35.90;;;;;;;2.48;nan;100731.34;5022368;28;20033;-74
2022/12/22 07:37:55;;;;;;;77.70;36.28;;;;;;;2.48;nan;100734.75;5029353;28;20087;-74
2022/12/22 07:40:20;;;;;;;75.22;35.60;;;;;;;2.53;nan;100736.88;5024209;28;20386;-74
2022/12/22 07:42:46;;;;;;;80.47;36.33;;;;;;;2.56;nan;100746.94;5027476;28;20024;-75
2022/12/22 07:45:13;;;;;;;84.72;36.78;;;;;;;2.64;nan;100754.75;5022581;28;20049;-73
2022/12/22 07:47:39;;;;;;;83.03;37.72;;;;;;;2.53;nan;100737.69;5025427;28;20442;-71
2022/12/22 07:52:59;;;;;;;89.47;39.22;;;;;;;2.66;nan;100742.41;5028166;28;20048;-70
2022/12/22 07:55:27;;;;;;;90.32;39.17;;;;;;;2.68;nan;100743.06;5020057;28;20017;-71
2022/12/22 07:57:54;;;;;;;90.65;40.78;;;;;;;2.70;nan;100735.88;5020664;28;20041;-70
2022/12/22 08:00:21;;;;;;;87.32;39.72;;;;;;;2.88;nan;100763.50;5027259;28;20036;-71
2022/12/22 08:02:54;;;;;;;87.18;40.42;;;;;;;2.82;nan;100751.13;5022169;28;20097;-70
2022/12/22 08:05:21;;;;;;;94.30;41.15;;;;;;;2.92;nan;100755.19;5020865;28;20028;-75
2022/12/22 08:07:48;;;;;;;97.72;43.25;;;;;;;2.95;nan;100736.66;5023772;28;20037;-74
2022/12/22 08:10:15;;;;;;;87.53;40.92;;;;;;;3.25;nan;100749.88;5018915;28;20025;-74
2022/12/22 08:12:40;;;;;;;100.68;43.97;;;;;;;;;;5017688;28;20113;-73
2022/12/22 08:15:07;;;;;;;120.65;49.42;;;;;;;3.79;nan;100756.97;5018357;28;20452;-73
2022/12/22 08:17:33;;;;;;;111.40;49.25;;;;;;;3.85;nan;100753.69;5025518;28;20079;-73
2022/12/22 08:19:59;;;;;;;112.28;46.42;;;;;;;4.13;nan;100750.59;5023979;28;20053;-74
2022/12/22 08:22:24;;;;;;;105.30;45.28;;;;;;;4.13;nan;100750.59;5025483;28;20436;-74
2022/12/22 08:24:51;;;;;;;99.53;44.35;;;;;;;4.09;nan;100770.16;5025351;28;20032;-74
2022/12/22 08:27:22;;;;;;;94.60;43.90;;;;;;;3.92;nan;100767.63;5018643;28;20040;-74
2022/12/22 08:29:53;;;;;;;89.57;42.22;;;;;;;3.82;nan;100770.47;5022470;28;20060;-74
2022/12/22 08:32:19;;;;;;;93.20;41.10;;;;;;;3.62;nan;100754.47;5023088;28;20025;-73
2022/12/22 08:34:45;;;;;;;93.15;41.53;;;;;;;3.72;nan;100775.09;5024395;28;20056;-72
2022/12/22 08:37:14;;;;;;;95.82;41.03;;;;;;;3.54;nan;100751.88;5022752;28;20037;-75
2022/12/22 08:39:44;;;;;;;94.90;44.78;;;;;;;3.48;nan;100744.75;5022481;28;20107;-75
2022/12/22 08:42:16;;;;;;;94.75;43.65;;;;;;;3.61;nan;100763.25;5023609;28;20394;-75
2022/12/22 08:44:44;;;;;;;99.18;45.72;;;;;;;3.51;nan;100749.63;5018560;28;20109;-75
2022/12/22 08:47:10;;;;;;;96.88;43.50;;;;;;;3.57;nan;100775.00;5020390;28;20028;-75
2022/12/22 08:49:36;;;;;;;95.57;44.47;;;;;;;3.55;nan;100769.13;5014961;28;20499;-75
2022/12/22 08:52:02;;;;;;;105.10;46.17;;;;;;;3.46;nan;100751.94;5020256;28;20037;-75
2022/12/22 08:54:27;;;;;;;100.72;46.10;;;;;;;3.40;nan;100739.59;5026350;28;20364;-75
2022/12/22 08:56:53;;;;;;;95.35;44.13;;;;;;;3.48;nan;100746.56;5018736;28;20056;-76
2022/12/22 08:59:20;;;;;;;102.93;46.28;;;;;;;3.37;nan;100732.09;5021049;28;20034;-76
2022/12/22 09:01:49;;;;;;;106.28;46.47;;;;;;;3.37;nan;100727.72;5020680;28;20033;-76
2022/12/22 09:04:17;;;;;;;99.68;45.47;;;;;;;3.40;nan;100739.59;5017014;28;20842;-75
2022/12/22 09:06:43;;;;;;;107.47;46.67;;;;;;;3.40;nan;100743.00;5023319;28;20041;-75
2022/12/22 09:09:13;;;;;;;108.75;48.35;;;;;;;3.46;nan;100751.13;5017750;28;20029;-75
2022/12/22 09:11:40;;;;;;;107.82;48.40;;;;;;;3.47;nan;100739.72;5017499;28;20091;-75
2022/12/22 09:14:08;;;;;;;110.20;47.28;;;;;;;3.51;nan;100741.81;5019929;28;20025;-75
2022/12/22 09:16:34;;;;;;;109.40;49.25;;;;;;;3.50;nan;100739.41;5016947;28;20041;-75
2022/12/22 09:19:01;;;;;;;115.40;49.72;;;;;;;3.49;nan;100738.56;5023186;28;20113;-75
2022/12/22 09:21:27;;;;;;;109.80;50.88;;;;;;;3.48;nan;100723.94;5023014;28;20060;-76
2022/12/22 09:23:54;;;;;;;110.13;49.88;;;;;;;3.55;nan;100724.88;5022261;28;20041;-75
2022/12/22 09:26:21;;;;;;;115.28;52.67;;;;;;;3.55;nan;100716.25;5018637;28;20026;-75
2022/12/22 09:28:48;;;;;;;124.60;57.22;;;;;;;3.52;nan;100711.38;5023613;28;20506;-76
2022/12/22 09:31:14;;;;;;;117.93;52.42;;;;;;;3.66;nan;100741.09;5022933;28;20025;-75
2022/12/22 09:33:40;;;;;;;116.35;52.08;;;;;;;3.68;nan;100741.72;5006265;28;20041;-75
2022/12/22 09:36:07;;;;;;;110.68;49.15;;;;;;;3.63;nan;100732.63;5015129;28;20025;-74
2022/12/22 09:38:33;;;;;;;108.18;49.38;;;;;;;3.71;nan;100741.38;5026941;28;20028;-75
2022/12/22 09:41:05;;;;;;;125.72;54.83;;;;;;;3.63;nan;100714.41;5026190;28;20384;-75
2022/12/22 09:43:32;;;;;;;125.28;53.63;;;;;;;3.69;nan;100712.09;5023484;28;20109;-75
2022/12/22 09:45:59;;;;;;;120.20;52.45;;;;;;;3.70;nan;100705.91;5021628;28;20022;-75
2022/12/22 09:48:34;;;;;;;117.45;51.22;;;;;;;3.83;nan;100729.59;5016678;28;20053;-75
2022/12/22 09:51:01;;;;;;;135.82;54.65;;;;;;;3.75;nan;100720.03;5021942;28;20021;-72
2022/12/22 09:53:26;;;;;;;127.03;53.97;;;;;;;3.82;nan;100717.56;5016671;28;20544;-75
2022/12/22 09:55:51;;;;;;;107.38;47.97;;;;;;;3.55;nan;100693.63;5019529;28;20021;-72
2022/12/22 09:58:27;;;;;;;104.85;46.45;;;;;;;3.88;nan;100721.25;5016612;28;20052;-72
2022/12/22 10:01:12;;;;;;;109.55;50.65;;;;;;;3.77;nan;100706.84;5025246;28;20091;-73
2022/12/22 10:03:38;;;;;;;116.82;53.88;;;;;;;3.85;nan;100725.03;5020813;28;20072;-72
2022/12/22 10:06:17;;;;;;;109.07;49.22;;;;;;;3.84;nan;100726.81;5024958;28;20029;-75
2022/12/22 10:08:43;;;;;;;116.97;50.42;;;;;;;3.82;nan;100717.56;5018189;28;20026;-74
2022/12/22 10:11:16;;;;;;;103.85;48.63;;;;;;;3.74;nan;100710.63;5023305;28;20428;-75
2022/12/22 10:13:43;;;;;;;115.13;48.85;;;;;;;3.82;nan;100714.97;5024207;28;20030;-75
2022/12/22 10:16:23;;;;;;;119.40;52.40;;;;;;;3.75;nan;100701.81;5021946;28;20052;-75
2022/12/22 10:19:05;;;;;;;113.28;49.58;;;;;;;3.72;nan;100691.75;5029443;28;20500;-75
2022/12/22 10:21:31;;;;;;;109.10;50.10;;;;;;;3.71;nan;100676.28;5027053;28;20025;-75
2022/12/22 10:23:56;;;;;;;124.32;56.83;;;;;;;3.80;nan;100672.63;5022079;28;20024;-75
2022/12/22 10:26:30;;;;;;;120.00;52.88;;;;;;;3.73;nan;100661.28;5015536;28;20097;-75
2022/12/22 10:29:09;;;;;;;120.93;51.75;;;;;;;3.82;nan;100671.47;5027528;28;20038;-75
2022/12/22 10:31:38;;;;;;;113.20;52.28;;;;;;;3.76;nan;100663.53;5030567;28;20513;-75
2022/12/22 10:34:15;;;;;;;115.45;53.08;;;;;;;3.77;nan;100670.38;5027165;28;20025;-75
2022/12/22 10:36:49;;;;;;;113.35;50.58;;;;;;;3.79;nan;100668.44;5023692;28;20026;-75
2022/12/22 10:39:27;;;;;;;120.75;52.42;;;;;;;3.70;nan;100662.44;5019646;28;20060;-75
2022/12/22 10:41:58;;;;;;;111.13;49.10;;;;;;;3.84;nan;100679.94;5022679;28;20033;-72
2022/12/22 10:44:29;;;;;;;106.45;48.08;;;;;;;3.87;nan;100683.19;5019850;28;20529;-75
2022/12/22 10:46:57;;;;;;;113.53;48.00;;;;;;;3.86;nan;100676.38;5021133;28;20033;-75
2022/12/22 10:49:38;;;;;;;106.55;47.63;;;;;;;3.84;nan;100685.16;5024884;28;20026;-74
2022/12/22 10:52:16;;;;;;;112.22;48.50;;;;;;;3.78;nan;100666.78;5020121;28;20036;-75
2022/12/22 10:54:43;;;;;;;102.03;45.53;;;;;;;3.80;nan;100662.22;5021768;28;20026;-74
2022/12/22 10:57:12;;;;;;;100.60;44.13;;;;;;;3.89;nan;100669.00;5024201;28;20046;-75
2022/12/22 10:59:56;;;;;;;97.95;44.97;;;;;;;3.88;nan;100666.56;5026777;28;20028;-74
2022/12/22 11:02:26;;;;;;;97.63;45.25;;;;;;;3.90;nan;100665.38;5013827;28;20022;-75
2022/12/22 11:04:53;;;;;;;109.82;47.40;;;;;;;3.90;nan;100656.78;5020838;28;20028;-75
2022/12/22 11:07:20;;;;;;;101.57;45.42;;;;;;;3.91;nan;100654.00;5015867;28;20029;-75
2022/12/22 11:09:45;;;;;;;103.85;46.92;;;;;;;3.90;nan;100646.34;5016266;28;20055;-75
2022/12/22 11:12:22;;;;;;;112.65;49.72;;;;;;;3.91;nan;100646.19;5019411;28;20037;-75
2022/12/22 11:15:04;;;;;;;139.80;60.22;;;;;;;3.88;nan;100630.09;5021724;28;20028;-74
2022/12/22 11:17:36;;;;;;;124.07;52.83;;;;;;;4.17;nan;100647.63;5020211;28;20029;-74
2022/12/22 11:20:26;;;;;;;124.85;53.50;;;;;;;4.15;nan;100649.59;5022673;28;20104;-74
2022/12/22 11:23:13;;;;;;;114.25;50.08;;;;;;;4.14;nan;100643.56;5019615;28;20507;-74
2022/12/22 11:26:15;;;;;;;104.47;46.58;;;;;;;4.16;nan;100643.38;5015512;28;20387;-74
2022/12/22 11:28:45;;;;;;;114.90;47.97;;;;;;;4.18;nan;100644.00;5014545;28;20075;-72
2022/12/22 11:31:38;;;;;;;108.65;47.88;;;;;;;4.20;nan;100642.84;5016278;28;20029;-73
2022/12/22 11:34:03;;;;;;;110.90;46.53;;;;;;;4.23;nan;100641.69;5016972;28;20083;-74
2022/12/22 11:37:03;;;;;;;104.97;46.65;;;;;;;3.97;nan;100589.94;5015026;28;20034;-74
2022/12/22 11:39:44;;;;;;;;;;;;;;;4.27;nan;100632.53;5024348;28;20042;-74
2022/12/22 11:42:25;;;;;;;93.85;42.83;;;;;;;4.32;nan;100626.78;5023164;28;19916;-75
2022/12/22 11:45:09;;;;;;;107.45;48.58;;;;;;;4.35;nan;100616.78;5015531;28;20029;-74
2022/12/22 11:47:42;;;;;;;106.85;48.00;;;;;;;4.24;nan;100591.19;5015876;28;20072;-75
2022/12/22 11:50:42;;;;;;;101.68;46.15;;;;;;;4.30;nan;100598.28;5017441;28;20029;-74
2022/12/22 11:53:26;;;;;;;93.65;43.08;;;;;;;4.46;nan;100610.34;4998674;28;20030;-74
2022/12/22 11:56:30;;;;;;;95.40;43.72;;;;;;;4.47;nan;100604.94;5024022;28;20474;-74
2022/12/22 11:59:26;;;;;;;106.30;45.35;;;;;;;4.52;nan;100608.81;5015936;28;20042;-74
2022/12/22 12:01:55;;;;;;;100.85;45.50;;;;;;;4.54;nan;100599.00;5019255;28;20034;-74
2022/12/22 12:04:29;;;;;;;106.60;46.97;;;;;;;4.58;nan;100595.84;5015353;28;20039;-67
2022/12/22 12:07:16;;;;;;;100.35;46.17;;;;;;;4.65;nan;100590.72;5015310;28;20029;-68
2022/12/22 12:09:47;;;;;;;92.80;44.53;;;;;;;4.69;nan;100597.19;5023292;28;20025;-69
2022/12/22 12:12:15;;;;;;;101.22;47.40;;;;;;;4.74;nan;100589.66;5020221;28;20022;-68
2022/12/22 12:14:57;;;;;;;119.20;53.08;;;;;;;4.78;nan;100588.28;5022532;28;20029;-68
2022/12/22 12:18:01;;;;;;;105.68;51.15;;;;;;;4.81;nan;100590.53;5024293;28;20026;-69
2022/12/22 12:20:27;;;;;;;116.32;54.03;;;;;;;4.86;nan;100595.19;5017548;28;20065;-68
2022/12/22 12:23:06;;;;;;;123.60;57.03;;;;;;;4.91;nan;100600.69;5020097;28;20494;-68
2022/12/22 12:26:04;;;;;;;117.60;53.17;;;;;;;4.92;nan;100598.88;5022142;28;20040;-68
2022/12/22 12:28:40;;;;;;;118.75;55.53;;;;;;;4.99;nan;100599.78;5004774;28;20785;-65
2022/12/22 12:31:07;;;;;;;119.93;55.03;;;;;;;4.88;nan;100593.22;5016585;28;20048;-67
2022/12/22 12:34:00;;;;;;;123.43;57.75;;;;;;;4.92;nan;100597.06;5028004;28;20057;-68
2022/12/22 12:36:49;;;;;;;127.55;59.55;;;;;;;4.96;nan;100600.16;5020848;28;20046;-72
2022/12/22 12:39:39;;;;;;;126.85;57.03;;;;;;;4.98;nan;100592.91;5020902;28;20502;-69
2022/12/22 12:42:35;;;;;;;123.70;57.63;;;;;;;4.99;nan;100603.19;5026106;28;20068;-70
2022/12/22 12:45:03;;;;;;;126.50;58.08;;;;;;;4.96;nan;100600.16;5025143;28;20057;-71
2022/12/22 12:47:32;;;;;;;139.68;65.07;;;;;;;5.08;nan;100603.91;5026921;28;20364;-70
2022/12/22 12:50:03;;;;;;;150.40;65.30;;;;;;;5.13;nan;100604.16;5011125;28;20448;-70
2022/12/22 12:52:49;;;;;;;143.98;68.93;;;;;;;5.19;nan;100605.22;5021600;28;20030;-69
2022/12/22 12:55:45;;;;;;;141.55;66.82;;;;;;;5.20;nan;100602.44;5016207;28;20036;-71
2022/12/22 12:58:31;;;;;;;137.73;66.32;;;;;;;5.08;nan;100583.00;5022682;28;20168;-73
2022/12/22 13:00:56;;;;;;;140.15;66.07;;;;;;;5.19;nan;100602.59;5019194;28;20025;-69
2022/12/22 13:03:28;;;;;;;144.07;67.13;;;;;;;5.24;nan;100606.28;5025580;28;20028;-71
2022/12/22 13:05:54;;;;;;;141.23;68.72;;;;;;;5.25;nan;100605.28;5020459;28;20079;-71
2022/12/22 13:08:30;;;;;;;150.52;69.00;;;;;;;5.26;nan;100601.66;5020528;28;20062;-71
2022/12/22 13:10:55;;;;;;;137.40;65.13;;;;;;;5.28;nan;100604.09;5024591;28;20029;-70
2022/12/22 13:13:24;;;;;;;133.43;64.38;;;;;;;5.30;nan;100612.56;5021652;28;20036;-70
2022/12/22 13:16:09;;;;;;;136.77;63.67;;;;;;;5.30;nan;100613.38;5022253;28;20491;-70
2022/12/22 13:18:34;;;;;;;139.80;64.28;;;;;;;5.31;nan;100607.13;5022446;28;20053;-70
2022/12/22 13:21:11;;;;;;;130.20;62.95;;;;;;;5.28;nan;100610.13;5021235;28;20115;-71
2022/12/22 13:23:41;;;;;;;145.95;67.32;;;;;;;5.21;nan;100593.59;5024958;28;20037;-72
2022/12/22 13:26:09;;;;;;;;;;;;;;;5.33;nan;100613.00;5023681;28;20509;-70
2022/12/22 13:28:38;;;;;;;133.18;62.47;;;;;;;5.28;nan;100609.31;5022124;28;20386;-69
2022/12/22 13:31:29;;;;;;;148.75;65.75;;;;;;;5.36;nan;100617.03;5024306;28;20033;-70
2022/12/22 13:34:22;;;;;;;138.80;65.95;;;;;;;5.38;nan;100622.88;5024961;28;20042;-70
2022/12/22 13:36:49;;;;;;;133.18;60.25;;;;;;;5.36;nan;100622.25;5020855;28;20037;-70
2022/12/22 13:39:15;;;;;;;136.93;61.15;;;;;;;5.32;nan;100616.59;5018135;28;20037;-70
2022/12/22 13:41:43;;;;;;;133.82;62.88;;;;;;;5.42;nan;100634.59;5022775;28;20052;-70
2022/12/22 13:44:26;;;;;;;134.88;61.80;;;;;;;5.42;nan;100629.38;5023626;28;20132;-70
2022/12/22 13:46:53;;;;;;;133.85;61.45;;;;;;;5.41;nan;100622.53;5027299;28;20124;-70
2022/12/22 13:49:19;;;;;;;137.35;62.88;;;;;;;5.41;nan;100619.09;5027615;28;20025;-69
2022/12/22 13:51:46;;;;;;;132.30;62.58;;;;;;;5.35;nan;100601.56;5028611;28;20033;-69
2022/12/22 13:54:26;;;;;;;141.57;62.70;;;;;;;5.41;nan;100604.25;5025168;28;20030;-70
2022/12/22 13:56:55;;;;;;;130.43;61.88;;;;;;;5.47;nan;100608.72;5026782;28;20049;-70
2022/12/22 13:59:26;;;;;;;128.38;61.83;;;;;;;5.48;nan;100612.13;5025858;28;20104;-70
2022/12/22 14:01:57;;;;;;;145.80;72.78;;;;;;;5.48;nan;100604.28;5024178;28;20101;-71
2022/12/22 14:04:23;;;;;;;137.93;65.65;;;;;;;5.49;nan;100608.53;5026591;28;20533;-70
2022/12/22 14:06:48;;;;;;;135.80;66.85;;;;;;;5.47;nan;100607.91;5023538;28;20037;-70
2022/12/22 14:09:20;;;;;;;135.65;60.97;;;;;;;5.51;nan;100614.41;5024733;28;20471;-70
2022/12/22 14:11:49;;;;;;;128.13;61.25;;;;;;;5.54;nan;100621.84;5025457;28;20029;-70
2022/12/22 14:14:25;;;;;;;131.63;62.42;;;;;;;5.56;nan;100622.47;5026034;28;20017;-70
2022/12/22 14:16:52;;;;;;;142.23;65.88;;;;;;;5.49;nan;100603.31;5024107;28;20029;-70
2022/12/22 14:19:19;;;;;;;137.90;62.80;;;;;;;5.54;nan;100614.00;5025416;28;20487;-70
2022/12/22 14:21:48;;;;;;;132.90;63.47;;;;;;;5.60;nan;100631.53;5043715;28;20159;-70
2022/12/22 14:24:19;;;;;;;141.88;63.75;;;;;;;5.57;nan;100629.31;5025040;28;20387;-71
2022/12/22 14:26:45;;;;;;;134.23;63.65;;;;;;;5.50;nan;100616.19;5010680;28;20470;-70
2022/12/22 14:29:16;;;;;;;135.13;65.53;;;;;;;5.61;nan;100625.34;5026081;28;20084;-70
2022/12/22 14:31:58;;;;;;;137.10;62.33;;;;;;;5.60;nan;100631.53;5021218;28;20493;-70
2022/12/22 14:34:30;;;;;;;136.25;63.25;;;;;;;5.56;nan;100617.25;5024403;28;20083;-70
2022/12/22 14:36:56;;;;;;;138.48;62.08;;;;;;;5.57;nan;100607.59;5023377;28;20032;-70
2022/12/22 14:39:25;;;;;;;127.28;60.53;;;;;;;5.59;nan;100609.03;5021046;28;20611;-71
2022/12/22 14:41:56;;;;;;;125.72;60.53;;;;;;;5.61;nan;100614.09;5022864;28;20403;-70
2022/12/22 14:44:21;;;;;;;143.68;67.47;;;;;;;5.63;nan;100612.09;5030968;28;20375;-73
2022/12/22 14:47:08;;;;;;;131.32;61.15;;;;;;;5.63;nan;100615.50;5025437;28;20030;-71
2022/12/22 14:49:34;;;;;;;134.63;63.60;;;;;;;5.58;nan;100603.97;5025455;28;20092;-70
2022/12/22 14:52:14;;;;;;;133.52;63.30;;;;;;;5.63;nan;100615.50;5025260;28;20659;-71
2022/12/22 14:54:39;;;;;;;;;;;;;;;5.62;nan;100613.88;5027917;28;20041;-71
2022/12/22 14:57:12;;;;;;;128.45;59.95;;;;;;;5.56;nan;100606.81;5019215;28;20007;-71
2022/12/22 14:59:37;;;;;;;133.70;63.60;;;;;;;5.57;nan;100611.03;5022551;28;20080;-70
2022/12/22 15:02:30;;;;;;;128.70;60.50;;;;;;;5.61;nan;100619.31;5025908;28;20432;-72
2022/12/22 15:05:23;;;;;;;128.55;61.25;;;;;;;5.57;nan;100607.59;5018227;28;20022;-72
2022/12/22 15:07:51;;;;;;;127.47;63.40;;;;;;;5.59;nan;100605.63;5022389;28;20025;-71
2022/12/22 15:10:17;;;;;;;135.57;62.63;;;;;;;5.23;nan;100556.88;5023158;28;20033;-71
2022/12/22 15:12:44;;;;;;;136.90;65.18;;;;;;;5.49;nan;100600.72;5024392;28;20491;-71
2022/12/22 15:15:18;;;;;;;149.52;66.50;;;;;;;5.49;nan;100598.09;5023816;28;20041;-71
2022/12/22 15:17:50;;;;;;;133.45;63.20;;;;;;;5.49;nan;100596.28;5021934;28;20029;-71
2022/12/22 15:20:24;;;;;;;136.95;65.43;;;;;;;5.44;nan;100598.66;5023519;28;20026;-71
2022/12/22 15:22:50;;;;;;;143.20;65.35;;;;;;;5.42;nan;100594.63;5024306;28;20061;-71